Time;durP1;ratioP1;P1;durP2;ratioP2;P2;SDS_P1;SDS_P2;PMS_P1;PMS_P2;Temp;Humidity;BMP_temperature;BMP_pressure;BME280_temperature;BME280_humidity;BME280_pressure;Samples;Min_cycle;Max_cycle;Signal;HPM_P1;HPM_P2
2022/09/25 00:00:53;;;;;;;;;;;;;;;;;;5508564;28;1073;-66
2022/09/25 00:03:35;;;;;;;;;;;;;;;;;;5509806;28;1080;-65
2022/09/25 00:06:18;;;;;;;;;;;;;;;;;;5509967;28;1156;-66
2022/09/25 00:09:01;;;;;;;;;;;;;;;;;;5503149;28;1216;-66
2022/09/25 00:11:44;;;;;;;;;;;;;;;;;;5507951;28;1903;-66
2022/09/25 00:14:26;;;;;;;;;;;;;;;;;;5509030;28;1121;-66
2022/09/25 00:17:09;;;;;;;;;;;;;;;;;;5509316;28;1193;-66
2022/09/25 00:19:50;;;;;;;;;;;;;;;;;;5505347;28;1168;-66
2022/09/25 00:22:33;;;;;;;;;;;;;;;;;;5503967;28;1211;-67
2022/09/25 00:25:15;;;;;;;;;;;;;;;;;;5509409;28;1090;-66
2022/09/25 00:27:58;;;;;;;;;;;;;;;;;;5509152;28;1175;-66
2022/09/25 00:30:40;;;;;;;;;;;;;;;;;;5508685;28;1906;-66
2022/09/25 00:33:23;;;;;;;;;;;;;;;;;;5500261;28;1180;-66
2022/09/25 00:36:06;;;;;;;;;;;;;;;;;;5508874;28;1133;-66
2022/09/25 00:38:49;;;;;;;;;;;;;;;;;;5508752;28;1081;-66
2022/09/25 00:41:32;;;;;;;;;;;;;;;;;;5509308;28;1080;-66
2022/09/25 00:44:14;;;;;;;;;;;;;;;;;;5499703;28;1178;-66
2022/09/25 00:46:57;;;;;;;;;;;;;;;;;;5508671;28;847;-66
2022/09/25 00:49:40;;;;;;;;;;;;;;;;;;5509105;28;1188;-66
2022/09/25 00:52:22;;;;;;;;;;;;;;;;;;5508642;28;1902;-66
2022/09/25 00:55:05;;;;;;;;;;;;;;;;;;5499684;28;1203;-66
2022/09/25 00:57:47;;;;;;;;;;;;;;;;;;5508970;28;1277;-67
2022/09/25 01:00:30;;;;;;;;;;;;;;;;;;5509963;28;1176;-67
2022/09/25 01:03:12;;;;;;;;;;;;;;;;;;5513573;28;1321;-67
2022/09/25 01:05:57;;;;;;;;;;;;;;;;;;5504766;28;1311;-67
2022/09/25 01:08:39;;;;;;;;;;;;;;;;;;5512370;28;1077;-67
2022/09/25 01:11:21;;;;;;;;;;;;;;;;;;5513311;28;1907;-67
2022/09/25 01:14:04;;;;;;;;;;;;;;;;;;5512884;28;1025;-67
2022/09/25 01:16:47;;;;;;;;;;;;;;;;;;5508791;28;1058;-67
2022/09/25 01:19:30;;;;;;;;;;;;;;;;;;5508645;28;1172;-67
2022/09/25 01:22:13;;;;;;;;;;;;;;;;;;5512476;28;1113;-67
2022/09/25 01:24:55;;;;;;;;;;;;;;;;;;5512593;28;1121;-67
2022/09/25 01:27:38;;;;;;;;;;;;;;;;;;5512980;28;1095;-67
2022/09/25 01:30:20;;;;;;;;;;;;;;;;;;5503934;28;1159;-67
2022/09/25 01:33:03;;;;;;;;;;;;;;;;;;5512929;28;1985;-67
2022/09/25 01:35:45;;;;;;;;;;;;;;;;;;5512226;28;1191;-67
2022/09/25 01:38:30;;;;;;;;;;;;;;;;;;5512102;28;1128;-67
2022/09/25 01:41:12;;;;;;;;;;;;;;;;;;5503328;28;1177;-68
2022/09/25 01:43:55;;;;;;;;;;;;;;;;;;5512322;28;1098;-67
2022/09/25 01:46:37;;;;;;;;;;;;;;;;;;5511720;28;994;-67
2022/09/25 01:49:20;;;;;;;;;;;;;;;;;;5512442;28;1089;-67
2022/09/25 01:52:02;;;;;;;;;;;;;;;;;;5502802;28;1981;-67
2022/09/25 01:54:45;;;;;;;;;;;;;;;;;;5512052;28;1242;-65
2022/09/25 01:57:28;;;;;;;;;;;;;;;;;;5511913;28;1140;-66
2022/09/25 02:00:10;;;;;;;;;;;;;;;;;;5512016;28;1042;-65
2022/09/25 02:02:54;;;;;;;;;;;;;;;;;;5502968;28;1245;-67
2022/09/25 02:05:36;;;;;;;;;;;;;;;;;;5510853;28;1072;-64
2022/09/25 02:08:19;;;;;;;;;;;;;;;;;;5512141;28;935;-65
2022/09/25 02:11:02;;;;;;;;;;;;;;;;;;5511601;28;1971;-65
2022/09/25 02:13:44;;;;;;;;;;;;;;;;;;5506435;28;1178;-66
2022/09/25 02:16:27;;;;;;;;;;;;;;;;;;5507704;28;1009;-65
2022/09/25 02:22:09;;;;;;;;;;;;;;;;;;5511589;28;989;-65
2022/09/25 02:24:55;;;;;;;;;;;;;;;;;;5506647;28;1288;-67
2022/09/25 02:27:40;;;;;;;;;;;;;;;;;;5506195;28;1213;-65
2022/09/25 02:30:23;;;;;;;;;;;;;;;;;;5511638;28;1021;-65
2022/09/25 02:33:05;;;;;;;;;;;;;;;;;;5511572;28;1953;-65
2022/09/25 02:35:48;;;;;;;;;;;;;;;;;;5511290;28;1121;-66
2022/09/25 02:38:32;;;;;;;;;;;;;;;;;;5502245;28;1187;-67
2022/09/25 02:41:15;;;;;;;;;;;;;;;;;;5511888;28;1133;-64
2022/09/25 02:43:57;;;;;;;;;;;;;;;;;;5510510;28;1117;-65
2022/09/25 02:46:39;;;;;;;;;;;;;;;;;;5510546;28;1034;-65
2022/09/25 02:49:22;;;;;;;;;;;;;;;;;;5501813;28;1134;-65
2022/09/25 02:52:04;;;;;;;;;;;;;;;;;;5510616;28;1975;-65
2022/09/25 02:54:47;;;;;;;;;;;;;;;;;;5510455;28;1117;-65
2022/09/25 02:57:29;;;;;;;;;;;;;;;;;;5510539;28;1189;-65
2022/09/25 03:00:12;;;;;;;;;;;;;;;;;;5501867;28;1363;-65
2022/09/25 03:02:55;;;;;;;;;;;;;;;;;;5510372;28;1129;-65
2022/09/25 03:05:37;;;;;;;;;;;;;;;;;;5510546;28;847;-65
2022/09/25 03:08:39;;;;;;;;;;;;;;;;;;5510133;28;1617;-65
2022/09/25 03:11:22;;;;;;;;;;;;;;;;;;5501613;28;1167;-65
2022/09/25 03:14:05;;;;;;;;;;;;;;;;;;5509722;28;1875;-66
2022/09/25 03:16:47;;;;;;;;;;;;;;;;;;5510280;28;1070;-65
2022/09/25 03:19:30;;;;;;;;;;;;;;;;;;5509843;28;1137;-65
2022/09/25 03:22:12;;;;;;;;;;;;;;;;;;5501290;28;1209;-65
2022/09/25 03:24:55;;;;;;;;;;;;;;;;;;5509442;28;1156;-65
2022/09/25 03:27:37;;;;;;;;;;;;;;;;;;5509368;28;1171;-65
2022/09/25 03:30:19;;;;;;;;;;;;;;;;;;5509575;28;1164;-65
2022/09/25 03:33:02;;;;;;;;;;;;;;;;;;5505986;28;1981;-65
2022/09/25 03:35:44;;;;;;;;;;;;;;;;;;5504427;28;1094;-66
2022/09/25 03:38:27;;;;;;;;;;;;;;;;;;5509386;28;1184;-66
2022/09/25 03:41:09;;;;;;;;;;;;;;;;;;5509914;28;1164;-65
2022/09/25 03:43:52;;;;;;;;;;;;;;;;;;5509305;28;1157;-65
2022/09/25 03:46:35;;;;;;;;;;;;;;;;;;5500983;28;1113;-65
2022/09/25 03:49:17;;;;;;;;;;;;;;;;;;5509266;28;1168;-65
2022/09/25 03:52:00;;;;;;;;;;;;;;;;;;5510509;28;1975;-65
2022/09/25 03:54:42;;;;;;;;;;;;;;;;;;5511227;28;1378;-65
2022/09/25 03:57:25;;;;;;;;;;;;;;;;;;5501968;28;1133;-65
2022/09/25 04:00:08;;;;;;;;;;;;;;;;;;5511165;28;1077;-65
2022/09/25 04:02:51;;;;;;;;;;;;;;;;;;5511615;28;1140;-68
2022/09/25 04:05:34;;;;;;;;;;;;;;;;;;5510119;28;1147;-64
2022/09/25 04:08:17;;;;;;;;;;;;;;;;;;5501529;28;1224;-65
2022/09/25 04:10:59;;;;;;;;;;;;;;;;;;5510322;28;1159;-64
2022/09/25 04:13:42;;;;;;;;;;;;;;;;;;5508862;28;1910;-67
2022/09/25 04:16:24;;;;;;;;;;;;;;;;;;5510588;28;1085;-65
2022/09/25 04:19:07;;;;;;;;;;;;;;;;;;5500302;28;1117;-64
2022/09/25 04:21:49;;;;;;;;;;;;;;;;;;5509702;28;1129;-65
2022/09/25 04:24:50;;;;;;;;;;;;;;;;;;5509439;28;1133;-65
2022/09/25 04:27:33;;;;;;;;;;;;;;;;;;5509194;28;1101;-66
2022/09/25 04:30:15;;;;;;;;;;;;;;;;;;5501750;28;1207;-65
2022/09/25 04:35:58;;;;;;;;;;;;;;;;;;5512677;28;1173;-65
2022/09/25 04:38:40;;;;;;;;;;;;;;;;;;5513514;28;1177;-64
2022/09/25 04:41:23;;;;;;;;;;;;;;;;;;5509174;28;1216;-65
2022/09/25 04:44:05;;;;;;;;;;;;;;;;;;5509427;28;1177;-64
2022/09/25 04:46:48;;;;;;;;;;;;;;;;;;5514070;28;1109;-65
2022/09/25 04:49:30;;;;;;;;;;;;;;;;;;5512744;28;1022;-65
2022/09/25 04:52:13;;;;;;;;;;;;;;;;;;5511781;28;1324;-65
2022/09/25 04:54:56;;;;;;;;;;;;;;;;;;5507419;28;1425;-63
2022/09/25 04:57:39;;;;;;;;;;;;;;;;;;5512848;28;1148;-65
2022/09/25 05:00:39;;;;;;;;;;;;;;;;;;5513835;28;1151;-63
2022/09/25 05:03:22;;;;;;;;;;;;;;;;;;5514111;28;1141;-64
2022/09/25 05:06:04;;;;;;;;;;;;;;;;;;5504667;28;1104;-64
2022/09/25 05:08:48;;;;;;;;;;;;;;;;;;5513716;28;1088;-65
2022/09/25 05:11:30;;;;;;;;;;;;;;;;;;5513572;28;1183;-66
2022/09/25 05:14:13;;;;;;;;;;;;;;;;;;5514041;28;1906;-65
2022/09/25 05:16:55;;;;;;;;;;;;;;;;;;5504957;28;1135;-65
2022/09/25 05:19:38;;;;;;;;;;;;;;;;;;5512687;28;1157;-65
2022/09/25 05:22:20;;;;;;;;;;;;;;;;;;5513381;28;1124;-65
2022/09/25 05:25:03;;;;;;;;;;;;;;;;;;5513519;28;1076;-65
2022/09/25 05:27:47;;;;;;;;;;;;;;;;;;5503887;28;1134;-64
2022/09/25 05:30:29;;;;;;;;;;;;;;;;;;5513597;28;1161;-65
2022/09/25 05:33:12;;;;;;;;;;;;;;;;;;5513146;28;1946;-66
2022/09/25 05:35:54;;;;;;;;;;;;;;;;;;5513522;28;907;-64
2022/09/25 05:38:37;;;;;;;;;;;;;;;;;;5504921;28;1076;-66
2022/09/25 05:41:20;;;;;;;;;;;;;;;;;;5513318;28;966;-64
2022/09/25 05:44:05;;;;;;;;;;;;;;;;;;5512680;28;1025;-65
2022/09/25 05:46:48;;;;;;;;;;;;;;;;;;5513266;28;1104;-65
2022/09/25 05:49:31;;;;;;;;;;;;;;;;;;5505587;28;1514;-66
2022/09/25 05:52:13;;;;;;;;;;;;;;;;;;5510989;28;1221;-64
2022/09/25 05:54:56;;;;;;;;;;;;;;;;;;5512173;28;1918;-63
2022/09/25 05:57:38;;;;;;;;;;;;;;;;;;5513223;28;1069;-63
2022/09/25 06:00:21;;;;;;;;;;;;;;;;;;5508409;28;1286;-65
2022/09/25 06:03:03;;;;;;;;;;;;;;;;;;5507462;28;1092;-64
2022/09/25 06:05:46;;;;;;;;;;;;;;;;;;5512903;28;1161;-65
2022/09/25 06:08:30;;;;;;;;;;;;;;;;;;5513881;28;1064;-67
2022/09/25 06:11:12;;;;;;;;;;;;;;;;;;5512746;28;1113;-65
2022/09/25 06:13:56;;;;;;;;;;;;;;;;;;5503631;28;1979;-63
2022/09/25 06:16:39;;;;;;;;;;;;;;;;;;5512505;28;1192;-66
2022/09/25 06:19:21;;;;;;;;;;;;;;;;;;5512112;28;1089;-64
2022/09/25 06:22:04;;;;;;;;;;;;;;;;;;5511576;28;1120;-64
2022/09/25 06:24:47;;;;;;;;;;;;;;;;;;5502211;28;1206;-64
2022/09/25 06:27:30;;;;;;;;;;;;;;;;;;5511692;28;1196;-65
2022/09/25 06:30:12;;;;;;;;;;;;;;;;;;5511225;28;804;-65
2022/09/25 06:32:58;;;;;;;;;;;;;;;;;;5511623;28;1005;-65
2022/09/25 06:35:41;;;;;;;;;;;;;;;;;;5502869;28;1401;-65
2022/09/25 06:38:24;;;;;;;;;;;;;;;;;;5511837;28;1163;-65
2022/09/25 06:41:07;;;;;;;;;;;;;;;;;;5510850;28;1078;-65
2022/09/25 06:43:49;;;;;;;;;;;;;;;;;;5511380;28;1090;-65
2022/09/25 06:46:32;;;;;;;;;;;;;;;;;;5502162;28;1287;-66
2022/09/25 06:49:14;;;;;;;;;;;;;;;;;;5510669;28;1145;-65
2022/09/25 06:51:57;;;;;;;;;;;;;;;;;;5511175;28;1358;-65
2022/09/25 06:54:39;;;;;;;;;;;;;;;;;;5510679;28;1918;-64
2022/09/25 06:57:25;;;;;;;;;;;;;;;;;;5505910;28;1138;-65
2022/09/25 07:00:08;;;;;;;;;;;;;;;;;;5506726;28;1086;-65
2022/09/25 07:05:50;;;;;;;;;;;;;;;;;;5511145;28;1165;-65
2022/09/25 07:08:33;;;;;;;;;;;;;;;;;;5506770;28;1229;-65
2022/09/25 07:11:15;;;;;;;;;;;;;;;;;;5505614;28;1146;-65
2022/09/25 07:13:58;;;;;;;;;;;;;;;;;;5511572;28;1981;-65
2022/09/25 07:16:40;;;;;;;;;;;;;;;;;;5510483;28;1129;-65
2022/09/25 07:19:22;;;;;;;;;;;;;;;;;;5510735;28;1077;-65
2022/09/25 07:22:11;;;;;;;;;;;;;;;;;;5501515;28;1417;-65
2022/09/25 07:24:54;;;;;;;;;;;;;;;;;;5510018;28;1348;-65
2022/09/25 07:27:36;;;;;;;;;;;;;;;;;;5510249;28;1100;-65
2022/09/25 07:30:18;;;;;;;;;;;;;;;;;;5510303;28;1097;-66
2022/09/25 07:33:01;;;;;;;;;;;;;;;;;;5500928;28;1126;-65
2022/09/25 07:35:44;;;;;;;;;;;;;;;;;;5510610;28;1987;-66
2022/09/25 07:38:26;;;;;;;;;;;;;;;;;;5509963;28;1164;-67
2022/09/25 07:41:09;;;;;;;;;;;;;;;;;;5510073;28;1005;-65
2022/09/25 07:43:51;;;;;;;;;;;;;;;;;;5501938;28;1216;-65
2022/09/25 07:46:47;;;;;;;;;;;;;;;;;;5510778;28;1728;-65
2022/09/25 07:49:31;;;;;;;;;;;;;;;;;;5510615;28;1109;-66
2022/09/25 07:52:14;;;;;;;;;;;;;;;;;;5510431;28;1347;-65
2022/09/25 07:54:57;;;;;;;;;;;;;;;;;;5501235;28;1987;-64
2022/09/25 07:57:40;;;;;;;;;;;;;;;;;;5509868;28;1046;-65
2022/09/25 08:00:23;;;;;;;;;;;;;;;;;;5510599;28;1131;-65
2022/09/25 08:03:06;;;;;;;;;;;;;;;;;;5509459;28;1184;-65
2022/09/25 08:05:49;;;;;;;;;;;;;;;;;;5503125;28;1250;-65
2022/09/25 08:08:32;;;;;;;;;;;;;;;;;;5509017;28;1167;-66
2022/09/25 08:11:15;;;;;;;;;;;;;;;;;;5508807;28;1095;-65
2022/09/25 08:13:58;;;;;;;;;;;;;;;;;;5509380;28;1981;-65
2022/09/25 08:16:41;;;;;;;;;;;;;;;;;;5504596;28;1001;-65
2022/09/25 08:19:24;;;;;;;;;;;;;;;;;;5505201;28;1089;-66
2022/09/25 08:22:06;;;;;;;;;;;;;;;;;;5508855;28;1312;-65
2022/09/25 08:24:48;;;;;;;;;;;;;;;;;;5509374;28;1125;-65
2022/09/25 08:27:31;;;;;;;;;;;;;;;;;;5509355;28;1045;-68
2022/09/25 08:30:16;;;;;;;;;;;;;;;;;;5500452;28;1480;-65
2022/09/25 08:32:59;;;;;;;;;;;;;;;;;;5509607;28;1172;-66
2022/09/25 08:35:41;;;;;;;;;;;;;;;;;;5509103;28;1910;-65
2022/09/25 08:38:25;;;;;;;;;;;;;;;;;;5509096;28;1129;-65
2022/09/25 08:41:08;;;;;;;;;;;;;;;;;;5500208;28;1218;-65
2022/09/25 08:43:50;;;;;;;;;;;;;;;;;;5509450;28;1128;-66
2022/09/25 08:49:33;;;;;;;;;;;;;;;;;;5509870;28;1141;-66
2022/09/25 08:52:15;;;;;;;;;;;;;;;;;;5501062;28;1283;-65
2022/09/25 08:54:58;;;;;;;;;;;;;;;;;;5509589;28;1902;-66
2022/09/25 08:57:44;;;;;;;;;;;;;;;;;;5509705;28;1155;-65
2022/09/25 09:00:26;;;;;;;;;;;;;;;;;;5509642;28;1180;-65
2022/09/25 09:03:09;;;;;;;;;;;;;;;;;;5501383;28;1121;-65
2022/09/25 09:05:51;;;;;;;;;;;;;;;;;;5509445;28;1616;-66
2022/09/25 09:08:34;;;;;;;;;;;;;;;;;;5509500;28;1160;-66
2022/09/25 09:11:16;;;;;;;;;;;;;;;;;;5509513;28;1152;-65
2022/09/25 09:13:59;;;;;;;;;;;;;;;;;;5501268;28;1097;-65
2022/09/25 09:16:41;;;;;;;;;;;;;;;;;;5508577;28;1969;-65
2022/09/25 09:19:24;;;;;;;;;;;;;;;;;;5509759;28;1053;-65
2022/09/25 09:22:06;;;;;;;;;;;;;;;;;;5511179;28;1295;-67
2022/09/25 09:24:49;;;;;;;;;;;;;;;;;;5508289;28;1248;-66
2022/09/25 09:27:32;;;;;;;;;;;;;;;;;;5509001;28;1168;-68
2022/09/25 09:30:15;;;;;;;;;;;;;;;;;;5513700;28;1089;-66
2022/09/25 09:32:57;;;;;;;;;;;;;;;;;;5512598;28;1113;-65
2022/09/25 09:35:40;;;;;;;;;;;;;;;;;;5513000;28;1979;-65
2022/09/25 09:38:23;;;;;;;;;;;;;;;;;;5503959;28;1523;-67
2022/09/25 09:41:06;;;;;;;;;;;;;;;;;;5510404;28;1761;-65
2022/09/25 09:43:49;;;;;;;;;;;;;;;;;;5502151;28;1556;-65
2022/09/25 09:46:39;;;;;;;;;;;;;;;;;;5512135;28;1605;-64
2022/09/25 09:49:21;;;;;;;;;;;;;;;;;;5503760;28;1111;-64
2022/09/25 09:52:04;;;;;;;;;;;;;;;;;;5512641;28;1234;-65
2022/09/25 09:54:46;;;;;;;;;;;;;;;;;;5511760;28;1910;-65
2022/09/25 09:59:42;;;;;;;;;;;;;;;20.67;35.80;95334.44;5652913;27;1252;-64
2022/09/25 10:02:30;;;;;;;;;;;;;;;20.54;35.52;95319.22;5660372;27;1631;-64
2022/09/25 10:05:18;;;;;;;;;;;;;;;20.38;34.70;95322.31;5662078;28;1064;-64
2022/09/25 10:08:01;;;;;;;;;;;;;;;20.27;35.47;95318.34;5661735;28;1084;-64
2022/09/25 10:10:46;;;;;;;;;;;;;;;20.34;35.43;95309.34;5653090;27;1075;-71
2022/09/25 10:13:31;;;;;;;;;;;;;;;;;;5655139;28;1709;-65
2022/09/25 10:16:16;;;;;;;;;;;;;;;20.35;nan;95315.50;5639197;28;675;-64
2022/09/25 10:19:03;;;;;;;;;;;;;;;20.37;nan;95318.78;5639249;28;1905;-67
2022/09/25 10:21:49;;;;;;;;;;;;;;;20.38;nan;95308.97;5633485;28;1816;-64
2022/09/25 10:24:52;;;;;;;;;;;;;;;20.34;nan;95313.84;5638418;28;1648;-67
2022/09/25 10:27:35;;;;;;;;;;;;;;;;;;5660633;28;1024;-65
2022/09/25 10:30:20;;;;;;;;;;;;;;;20.34;nan;95304.00;5661272;28;1356;-65
2022/09/25 10:33:12;;;;;;;;;;;;;;;20.33;nan;95297.00;5658129;28;1251;-65
2022/09/25 10:35:55;;;;;;;;;;;;;;;20.34;nan;95282.66;5659409;27;1039;-64
2022/09/25 10:38:40;;;;;;;;;;;;;;;20.34;nan;95282.66;5661616;27;1972;-66
2022/09/25 10:41:23;;;;;;;;;;;;;;;20.35;nan;95283.47;5639444;28;1481;-63
2022/09/25 10:44:20;;;;;;;;;;;;;;;20.34;nan;95277.31;5641834;28;1593;-64
2022/09/25 10:50:20;;;;;;;;;;;;;;;20.33;nan;95280.19;5628766;27;1140;-64
2022/09/25 10:53:04;;;;;;;;;;;;;;;20.33;nan;95281.00;5661636;27;1433;-65
2022/09/25 10:55:50;;;;;;;;;;;;;;;;;;5656620;27;1227;-64
2022/09/25 10:58:36;;;;;;;;;;;;;;;20.33;nan;95264.16;5649227;27;1987;-65
2022/09/25 11:01:19;;;;;;;;;;;;;;;20.31;nan;95272.34;5638008;28;1059;-64
2022/09/25 11:04:03;;;;;;;;;;;;;;;20.31;nan;95267.03;5655761;28;1609;-65
2022/09/25 11:06:51;;;;;;;;;;;;;;;20.31;nan;95256.34;5655365;27;1157;-64
2022/09/25 11:09:36;;;;;;;;;;;;;;;20.31;nan;95251.00;5649414;27;1170;-67
2022/09/25 11:12:23;;;;;;;;;;;;;;;20.31;nan;95251.00;5648191;28;1004;-69
2022/09/25 11:15:09;;;;;;;;;;;;;;;20.30;nan;95253.91;5602809;28;1040;-65
2022/09/25 11:17:53;;;;;;;;;;;;;;;20.29;nan;95252.28;5625320;28;1913;-67
2022/09/25 11:20:38;;;;;;;;;;;;;;;20.36;nan;95241.59;5640551;28;1670;-66
2022/09/25 11:23:28;;;;;;;;;;;;;;;20.40;nan;95248.19;5620464;28;1794;-63
2022/09/25 11:26:15;;;;;;;;;;;;;;;20.33;nan;95240.97;5645783;28;1007;-62
2022/09/25 11:29:02;;;;;;;;;;;;;;;20.31;nan;95235.00;5645183;28;1110;-62
2022/09/25 11:31:50;;;;;;;;;;;;;;;20.32;nan;95241.19;5631894;28;1719;-62
2022/09/25 11:34:39;;;;;;;;;;;;;;;20.33;nan;95238.28;5623169;28;1720;-63
2022/09/25 11:37:26;;;;;;;;;;;;;;;20.34;nan;95239.09;5623382;28;1007;-62
2022/09/25 11:43:25;;;;;;;;;;;;;;;20.31;nan;95228.84;5615113;28;1605;-62
2022/09/25 11:46:17;;;;;;;;;;;;;;;20.31;nan;95224.31;5622720;28;1112;-62
2022/09/25 11:49:04;;;;;;;;;;;;;;;20.31;nan;95223.50;5622307;28;1023;-62
2022/09/25 11:52:12;;;;;;;;;;;;;;;20.31;nan;95212.84;5622673;28;1562;-65
2022/09/25 11:55:14;;;;;;;;;;;;;;;20.32;nan;95220.66;5618071;28;1323;-63
2022/09/25 11:58:04;;;;;;;;;;;;;;;20.32;nan;95209.16;5643849;28;1905;-62
2022/09/25 12:00:52;;;;;;;;;;;;;;;20.31;nan;95202.97;5644583;28;996;-62
2022/09/25 12:03:42;;;;;;;;;;;;;;;20.29;nan;95209.56;5638515;27;1303;-62
2022/09/25 12:06:39;;;;;;;;;;;;;;;20.28;nan;95203.38;5639884;28;1273;-62
2022/09/25 12:09:29;;;;;;;;;;;;;;;20.27;nan;95201.75;5630531;28;1640;-62
2022/09/25 12:12:17;;;;;;;;;;;;;;;20.27;nan;95195.59;5621976;28;1684;-65
2022/09/25 12:15:08;;;;;;;;;;;;;;;20.25;nan;95187.78;5617619;28;1073;-65
2022/09/25 12:17:56;;;;;;;;;;;;;;;20.25;nan;95182.47;5617648;28;1114;-63
2022/09/25 12:20:45;;;;;;;;;;;;;;;20.24;nan;95186.16;5621149;28;1905;-62
2022/09/25 12:23:31;;;;;;;;;;;;;;;20.24;nan;95190.69;5613397;28;1901;-65
2022/09/25 12:26:19;;;;;;;;;;;;;;;20.23;nan;95189.88;5598167;28;1360;-63
2022/09/25 12:29:14;;;;;;;;;;;;;;;20.19;nan;95172.59;5623169;28;1602;-62
2022/09/25 12:32:03;;;;;;;;;;;;;;;20.16;nan;95172.22;5642912;28;1151;-62
2022/09/25 12:34:56;;;;;;;;;;;;;;;20.13;nan;95162.75;5642095;28;980;-62
2022/09/25 12:37:42;;;;;;;;;;;;;;;20.12;nan;95166.47;5639096;28;1576;-65
2022/09/25 12:40:28;;;;;;;;;;;;;;;20.07;nan;95153.72;5628798;28;1909;-62
2022/09/25 12:43:14;;;;;;;;;;;;;;;20.06;nan;95167.25;5618770;28;1481;-62
2022/09/25 12:46:00;;;;;;;;;;;;;;;20.06;nan;95141.44;5618329;28;1629;-63
2022/09/25 12:48:44;;;;;;;;;;;;;;;;;;5618037;28;1198;-63
2022/09/25 12:51:32;;;;;;;;;;;;;;;20.05;nan;95150.44;5609308;28;1512;-64
2022/09/25 12:54:22;;;;;;;;;;;;;;;20.02;nan;95150.84;5617923;28;1335;-66
2022/09/25 12:57:12;;;;;;;;;;;;;;;20.03;nan;95141.84;5617485;28;1210;-62
2022/09/25 12:59:57;;;;;;;;;;;;;;;20.03;nan;95141.00;5618250;28;1906;-62
2022/09/25 13:02:40;;;;;;;;;;;;;;;;;;5608130;28;1029;-62
2022/09/25 13:05:26;;;;;;;;;;;;;;;19.99;nan;95137.94;5624236;28;1646;-63
2022/09/25 13:08:14;;;;;;;;;;;;;;;19.98;nan;95132.81;5639750;28;1024;-66
2022/09/25 13:11:00;;;;;;;;;;;;;;;19.99;nan;95113.94;5620592;28;1661;-63
2022/09/25 13:13:45;;;;;;;;;;;;;;;19.98;nan;95106.97;5609498;28;1596;-63
2022/09/25 13:16:28;;;;;;;;;;;;;;;19.98;nan;95106.16;5619712;28;1601;-62
2022/09/25 13:19:11;;;;;;;;;;;;;;;19.98;nan;95095.47;5619314;28;2010;-63
2022/09/25 13:21:59;;;;;;;;;;;;;;;19.96;nan;95102.84;5619919;28;1091;-62
2022/09/25 13:24:46;;;;;;;;;;;;;;;19.93;nan;95097.94;5610610;28;1700;-62
2022/09/25 13:27:31;;;;;;;;;;;;;;;19.92;nan;95097.13;5619734;28;1516;-66
2022/09/25 13:30:20;;;;;;;;;;;;;;;19.93;nan;95098.75;5642107;28;1050;-60
2022/09/25 13:33:03;;;;;;;;;;;;;;;19.94;nan;95094.22;5641566;28;980;-61
2022/09/25 13:35:46;;;;;;;;;;;;;;;19.92;nan;95091.78;5629408;28;1798;-61
2022/09/25 13:41:31;;;;;;;;;;;;;;;19.91;nan;95084.78;5613987;28;1532;-61
2022/09/25 13:44:32;;;;;;;;;;;;;;;19.88;nan;95088.69;5606622;28;1767;-61
2022/09/25 13:47:36;;;;;;;;;;;;;;;19.88;nan;95085.22;5626214;27;1702;-62
2022/09/25 13:50:24;;;;;;;;;;;;;;;19.87;nan;95078.25;5602170;28;1691;-62
2022/09/25 13:53:22;;;;;;;;;;;;;;;19.89;nan;95071.69;5618172;28;1393;-62
2022/09/25 13:56:17;;;;;;;;;;;;;;;19.93;nan;95066.75;5617327;28;1701;-61
2022/09/25 13:59:06;;;;;;;;;;;;;;;19.95;nan;95070.03;5615051;28;1988;-64
2022/09/25 14:01:52;;;;;;;;;;;;;;;20.02;nan;95059.34;5618740;28;1788;-64
2022/09/25 14:04:35;;;;;;;;;;;;;;;;;;5606142;28;1631;-62
2022/09/25 14:07:19;;;;;;;;;;;;;;;20.08;nan;95064.66;5616017;28;1477;-61
2022/09/25 14:10:02;;;;;;;;;;;;;;;20.08;nan;95063.84;5605955;28;1426;-64
2022/09/25 14:12:47;;;;;;;;;;;;;;;20.09;nan;95038.84;5617215;28;1356;-61
2022/09/25 14:15:34;;;;;;;;;;;;;;;20.09;nan;95065.50;5610212;28;1751;-64
2022/09/25 14:18:21;;;;;;;;;;;;;;;20.10;nan;95056.47;5609981;28;1343;-62
2022/09/25 14:21:05;;;;;;;;;;;;;;;20.10;nan;95057.28;5603707;28;2020;-62
2022/09/25 14:23:47;;;;;;;;;;;;;;;;;;5610242;28;1462;-62
2022/09/25 14:26:30;;;;;;;;;;;;;;;20.10;nan;95051.94;5608462;28;1547;-62
2022/09/25 14:29:15;;;;;;;;;;;;;;;20.10;nan;95040.47;5612860;28;1452;-62
2022/09/25 14:32:11;;;;;;;;;;;;;;;20.10;nan;95056.47;5615054;28;1404;-63
2022/09/25 14:35:20;;;;;;;;;;;;;;;20.11;nan;95048.25;5606587;28;1423;-62
2022/09/25 14:38:35;;;;;;;;;;;;;;;20.10;nan;95051.13;5603139;28;1736;-65
2022/09/25 14:41:22;;;;;;;;;;;;;;;;;;5578492;28;1914;-62
2022/09/25 14:44:17;;;;;;;;;;;;;;;20.11;nan;95053.59;5618813;28;1479;-65
2022/09/25 14:47:00;;;;;;;;;;;;;;;20.11;nan;95052.78;5615473;28;1543;-63
2022/09/25 14:49:46;;;;;;;;;;;;;;;20.11;nan;95053.59;5619154;28;1439;-62
2022/09/25 14:52:30;;;;;;;;;;;;;;;20.13;nan;95049.91;5621313;28;1706;-63
2022/09/25 14:55:20;;;;;;;;;;;;;;;20.12;nan;95051.75;5622263;28;1659;-61
2022/09/25 14:58:04;;;;;;;;;;;;;;;20.11;nan;95048.25;5609820;28;1818;-62
2022/09/25 15:00:50;;;;;;;;;;;;;;;20.11;nan;95052.78;5605194;28;1941;-64
2022/09/25 15:03:32;;;;;;;;;;;;;;;;;;5613959;28;1413;-61
2022/09/25 15:06:25;;;;;;;;;;;;;;;20.11;nan;95053.59;5600493;28;1594;-63
2022/09/25 15:09:27;;;;;;;;;;;;;;;20.11;nan;95052.78;5590704;28;1733;-62
2022/09/25 15:12:17;;;;;;;;;;;;;;;20.10;nan;95057.28;5607751;28;1373;-64
2022/09/25 15:15:00;;;;;;;;;;;;;;;20.11;nan;95058.09;5603447;28;2163;-61
2022/09/25 15:17:44;;;;;;;;;;;;;;;20.11;nan;95053.59;5608500;28;1668;-63
2022/09/25 15:20:28;;;;;;;;;;;;;;;20.11;nan;95058.91;5604340;28;1988;-62
2022/09/25 15:23:17;;;;;;;;;;;;;;;20.10;nan;95057.28;5616475;28;1695;-61
2022/09/25 15:26:00;;;;;;;;;;;;;;;20.12;nan;95049.09;5600531;28;1727;-63
2022/09/25 15:28:43;;;;;;;;;;;;;;;20.11;nan;95053.59;5605592;28;1529;-62
2022/09/25 15:31:27;;;;;;;;;;;;;;;20.11;nan;95058.09;5605401;28;1626;-64
2022/09/25 15:34:11;;;;;;;;;;;;;;;20.11;nan;95052.78;5618227;28;1640;-64
2022/09/25 15:36:54;;;;;;;;;;;;;;;20.11;nan;95047.44;5608436;28;1762;-62
2022/09/25 15:39:41;;;;;;;;;;;;;;;20.11;nan;95042.91;5610356;28;1821;-63
2022/09/25 15:42:24;;;;;;;;;;;;;;;20.12;nan;95049.09;5591307;28;1748;-64
2022/09/25 15:45:25;;;;;;;;;;;;;;;20.11;nan;95052.78;5615345;28;1651;-62
2022/09/25 15:48:10;;;;;;;;;;;;;;;20.12;nan;95049.09;5619396;28;1654;-62
2022/09/25 15:50:53;;;;;;;;;;;;;;;20.10;nan;95051.94;5614584;28;1161;-63
2022/09/25 15:53:42;;;;;;;;;;;;;;;20.10;nan;95041.28;5607191;28;1739;-63
2022/09/25 15:56:30;;;;;;;;;;;;;;;20.13;nan;95044.56;5622704;28;1643;-61
2022/09/25 15:59:16;;;;;;;;;;;;;;;20.12;nan;95043.75;5595670;28;1382;-62
2022/09/25 16:05:01;;;;;;;;;;;;;;;20.11;nan;95042.09;5609955;28;1132;-61
2022/09/25 16:07:44;;;;;;;;;;;;;;;20.11;nan;95036.75;5611148;28;1591;-66
2022/09/25 16:10:32;;;;;;;;;;;;;;;20.11;nan;95037.56;5608399;28;1396;-62
2022/09/25 16:13:24;;;;;;;;;;;;;;;20.11;nan;95026.09;5618716;28;1644;-62
2022/09/25 16:16:16;;;;;;;;;;;;;;;20.10;nan;95019.94;5611973;28;1616;-61
2022/09/25 16:19:00;;;;;;;;;;;;;;;20.10;nan;95024.47;5601079;28;1677;-63
2022/09/25 16:21:43;;;;;;;;;;;;;;;20.11;nan;95042.91;5617378;28;1914;-62
2022/09/25 16:24:27;;;;;;;;;;;;;;;;;;5612671;28;1789;-60
2022/09/25 16:27:21;;;;;;;;;;;;;;;20.11;nan;95042.91;5597415;28;1603;-62
2022/09/25 16:30:06;;;;;;;;;;;;;;;20.12;nan;95038.44;5607435;28;1474;-61
2022/09/25 16:32:51;;;;;;;;;;;;;;;20.11;nan;95047.44;5603418;28;1682;-61
2022/09/25 16:35:35;;;;;;;;;;;;;;;20.11;nan;95031.44;5616006;28;1804;-63
2022/09/25 16:38:39;;;;;;;;;;;;;;;20.12;nan;95038.44;5623585;28;1783;-64
2022/09/25 16:41:22;;;;;;;;;;;;;;;20.12;nan;95054.44;5613303;28;1934;-62
2022/09/25 16:44:13;;;;;;;;;;;;;;;20.11;nan;95053.59;5630542;28;1613;-63
2022/09/25 16:47:17;;;;;;;;;;;;;;;20.11;nan;95052.78;5637578;28;1686;-61
2022/09/25 16:50:03;;;;;;;;;;;;;;;20.11;nan;95048.25;5612667;28;1800;-62
2022/09/25 16:52:46;;;;;;;;;;;;;;;20.11;nan;95058.91;5610379;28;1259;-69
2022/09/25 16:55:29;;;;;;;;;;;;;;;20.08;nan;95047.84;5632115;28;1716;-64
2022/09/25 16:58:12;;;;;;;;;;;;;;;;;;5622895;28;1602;-63
2022/09/25 17:00:55;;;;;;;;;;;;;;;20.07;nan;95068.38;5622780;28;1906;-63
2022/09/25 17:03:49;;;;;;;;;;;;;;;20.09;nan;95066.34;5609666;28;1736;-64
2022/09/25 17:06:36;;;;;;;;;;;;;;;20.09;nan;95071.66;5634520;28;1627;-64
2022/09/25 17:09:19;;;;;;;;;;;;;;;20.09;nan;95065.50;5621854;28;1356;-65
2022/09/25 17:12:04;;;;;;;;;;;;;;;20.09;nan;95065.50;5630458;28;1703;-62
2022/09/25 17:14:47;;;;;;;;;;;;;;;20.09;nan;95070.84;5614751;28;1660;-62
2022/09/25 17:17:31;;;;;;;;;;;;;;;20.09;nan;95076.19;5625618;27;1622;-63
2022/09/25 17:20:16;;;;;;;;;;;;;;;20.08;nan;95078.00;5618516;28;1671;-66
2022/09/25 17:22:59;;;;;;;;;;;;;;;20.08;nan;95075.34;5623191;28;1930;-63
2022/09/25 17:25:43;;;;;;;;;;;;;;;20.08;nan;95090.53;5626244;28;1620;-62
2022/09/25 17:28:26;;;;;;;;;;;;;;;20.09;nan;95092.19;5624979;28;1604;-62
2022/09/25 17:31:15;;;;;;;;;;;;;;;20.08;nan;95090.53;5616411;28;1577;-63
2022/09/25 17:33:58;;;;;;;;;;;;;;;;;;5627500;28;1596;-61
2022/09/25 17:36:42;;;;;;;;;;;;;;;20.09;nan;95092.19;5609296;28;1615;-65